sensor_id;sensor_type;location;lat;lon;timestamp;pressure;altitude;pressure_sealevel;temperature;humidity
34566;BME280;20803;42.676;26.348;2022-07-04T00:00:42;98864.06;;;19.03;65.28
34566;BME280;20803;42.676;26.348;2022-07-04T00:03:08;98862.50;;;18.93;65.57
34566;BME280;20803;42.676;26.348;2022-07-04T00:05:33;98859.34;;;18.91;66.09
34566;BME280;20803;42.676;26.348;2022-07-04T00:07:58;98854.19;;;18.89;68.22
34566;BME280;20803;42.676;26.348;2022-07-04T00:10:24;98863.75;;;18.92;67.73
34566;BME280;20803;42.676;26.348;2022-07-04T00:12:50;98857.03;;;18.89;67.32
34566;BME280;20803;42.676;26.348;2022-07-04T00:15:16;98858.88;;;18.83;67.24
34566;BME280;20803;42.676;26.348;2022-07-04T00:17:41;98858.41;;;18.85;67.01
34566;BME280;20803;42.676;26.348;2022-07-04T00:20:08;98854.63;;;18.79;67.97
34566;BME280;20803;42.676;26.348;2022-07-04T00:22:34;98861.19;;;18.76;67.80
34566;BME280;20803;42.676;26.348;2022-07-04T00:24:59;98857.25;;;18.73;67.76
34566;BME280;20803;42.676;26.348;2022-07-04T00:27:25;98853.38;;;18.71;67.66
34566;BME280;20803;42.676;26.348;2022-07-04T00:29:51;98848.97;;;18.70;67.75
34566;BME280;20803;42.676;26.348;2022-07-04T00:32:17;98845.84;;;18.68;67.26
34566;BME280;20803;42.676;26.348;2022-07-04T00:34:43;98850.22;;;18.69;66.14
34566;BME280;20803;42.676;26.348;2022-07-04T00:37:08;98853.38;;;18.71;66.41
34566;BME280;20803;42.676;26.348;2022-07-04T00:39:34;98849.59;;;18.74;66.13
34566;BME280;20803;42.676;26.348;2022-07-04T00:41:59;98859.94;;;18.77;66.03
34566;BME280;20803;42.676;26.348;2022-07-04T00:44:25;98851.63;;;18.73;66.66
34566;BME280;20803;42.676;26.348;2022-07-04T00:46:50;98853.38;;;18.71;67.08
34566;BME280;20803;42.676;26.348;2022-07-04T00:49:17;98849.75;;;18.70;67.63
34566;BME280;20803;42.676;26.348;2022-07-04T00:51:44;98837.38;;;18.68;67.90
34566;BME280;20803;42.676;26.348;2022-07-04T00:54:11;98831.59;;;18.62;67.74
34566;BME280;20803;42.676;26.348;2022-07-04T00:56:39;98837.66;;;18.60;67.95
34566;BME280;20803;42.676;26.348;2022-07-04T00:59:06;98837.03;;;18.56;67.60
34566;BME280;20803;42.676;26.348;2022-07-04T01:01:32;98834.56;;;18.58;67.47
34566;BME280;20803;42.676;26.348;2022-07-04T01:03:58;98831.53;;;18.53;67.17
34566;BME280;20803;42.676;26.348;2022-07-04T01:06:24;98828.22;;;18.45;67.37
34566;BME280;20803;42.676;26.348;2022-07-04T01:08:50;98819.31;;;18.47;67.30
34566;BME280;20803;42.676;26.348;2022-07-04T01:11:17;98822.75;;;18.42;68.60
34566;BME280;20803;42.676;26.348;2022-07-04T01:13:42;98817.13;;;18.42;68.22
34566;BME280;20803;42.676;26.348;2022-07-04T01:16:09;98817.13;;;18.42;68.57
34566;BME280;20803;42.676;26.348;2022-07-04T01:18:36;98810.69;;;18.41;68.07
34566;BME280;20803;42.676;26.348;2022-07-04T01:21:02;98806.63;;;18.42;68.21
34566;BME280;20803;42.676;26.348;2022-07-04T01:23:27;98808.19;;;18.43;67.60
34566;BME280;20803;42.676;26.348;2022-07-04T01:25:53;98815.84;;;18.43;67.71
34566;BME280;20803;42.676;26.348;2022-07-04T01:28:20;98807.56;;;18.39;67.29
34566;BME280;20803;42.676;26.348;2022-07-04T01:30:45;98795.69;;;18.44;65.97
34566;BME280;20803;42.676;26.348;2022-07-04T01:33:11;98799.63;;;18.47;65.34
34566;BME280;20803;42.676;26.348;2022-07-04T01:35:36;98795.22;;;18.46;65.47
34566;BME280;20803;42.676;26.348;2022-07-04T01:38:02;98793.31;;;18.43;65.60
34566;BME280;20803;42.676;26.348;2022-07-04T01:40:27;98793.81;;;18.41;64.64
34566;BME280;20803;42.676;26.348;2022-07-04T01:42:53;98790.66;;;18.39;66.24
34566;BME280;20803;42.676;26.348;2022-07-04T01:45:18;98792.69;;;18.39;65.75
34566;BME280;20803;42.676;26.348;2022-07-04T01:47:44;98793.63;;;18.36;67.09
34566;BME280;20803;42.676;26.348;2022-07-04T01:50:10;98794.56;;;18.33;66.25
34566;BME280;20803;42.676;26.348;2022-07-04T01:52:40;98805.03;;;18.32;66.23
34566;BME280;20803;42.676;26.348;2022-07-04T01:55:06;98795.00;;;18.31;66.98
34566;BME280;20803;42.676;26.348;2022-07-04T01:57:32;98802.47;;;18.25;67.96
34566;BME280;20803;42.676;26.348;2022-07-04T01:59:57;98795.59;;;18.17;67.59
34566;BME280;20803;42.676;26.348;2022-07-04T02:02:41;98802.56;;;18.12;67.28
34566;BME280;20803;42.676;26.348;2022-07-04T02:05:07;98798.81;;;18.06;67.57
34566;BME280;20803;42.676;26.348;2022-07-04T02:07:33;98804.75;;;18.08;68.47
34566;BME280;20803;42.676;26.348;2022-07-04T02:09:58;98802.56;;;18.03;67.65
34566;BME280;20803;42.676;26.348;2022-07-04T02:12:23;98800.25;;;18.11;67.00
34566;BME280;20803;42.676;26.348;2022-07-04T02:15:08;98802.47;;;18.16;67.74
34566;BME280;20803;42.676;26.348;2022-07-04T02:17:33;98804.47;;;18.15;67.62
34566;BME280;20803;42.676;26.348;2022-07-04T02:19:58;98799.66;;;18.16;67.64
34566;BME280;20803;42.676;26.348;2022-07-04T02:22:24;98804.94;;;18.14;68.18
34566;BME280;20803;42.676;26.348;2022-07-04T02:24:50;98802.28;;;18.10;67.80
34566;BME280;20803;42.676;26.348;2022-07-04T02:27:15;98806.94;;;18.04;66.60
34566;BME280;20803;42.676;26.348;2022-07-04T02:29:41;98805.03;;;18.01;67.55
34566;BME280;20803;42.676;26.348;2022-07-04T02:32:07;98808.00;;;17.98;66.21
34566;BME280;20803;42.676;26.348;2022-07-04T02:34:33;98809.22;;;17.97;65.65
34566;BME280;20803;42.676;26.348;2022-07-04T02:36:58;98813.63;;;17.98;66.08
34566;BME280;20803;42.676;26.348;2022-07-04T02:39:24;98805.78;;;17.93;64.91
34566;BME280;20803;42.676;26.348;2022-07-04T02:41:49;98810.00;;;17.97;64.69
34566;BME280;20803;42.676;26.348;2022-07-04T02:44:15;98809.56;;;17.99;64.32
34566;BME280;20803;42.676;26.348;2022-07-04T02:46:40;98807.84;;;18.01;65.21
34566;BME280;20803;42.676;26.348;2022-07-04T02:49:06;98821.97;;;18.10;63.35
34566;BME280;20803;42.676;26.348;2022-07-04T02:51:31;98816.38;;;18.19;63.51
34566;BME280;20803;42.676;26.348;2022-07-04T02:53:57;98829.72;;;18.28;61.85
34566;BME280;20803;42.676;26.348;2022-07-04T02:56:22;98831.22;;;18.20;61.68
34566;BME280;20803;42.676;26.348;2022-07-04T02:58:48;98833.31;;;18.29;61.63
34566;BME280;20803;42.676;26.348;2022-07-04T03:01:14;98835.53;;;18.12;57.11
34566;BME280;20803;42.676;26.348;2022-07-04T03:03:40;98838.91;;;17.98;57.01
34566;BME280;20803;42.676;26.348;2022-07-04T03:06:09;98846.63;;;17.84;59.49
34566;BME280;20803;42.676;26.348;2022-07-04T03:08:35;98844.97;;;17.53;63.30
34566;BME280;20803;42.676;26.348;2022-07-04T03:11:00;98853.72;;;17.20;70.12
34566;BME280;20803;42.676;26.348;2022-07-04T03:13:26;98845.72;;;16.84;73.67
34566;BME280;20803;42.676;26.348;2022-07-04T03:15:52;98853.63;;;16.64;76.36
34566;BME280;20803;42.676;26.348;2022-07-04T03:18:17;98852.47;;;16.49;78.09
34566;BME280;20803;42.676;26.348;2022-07-04T03:20:43;98854.06;;;16.75;78.75
34566;BME280;20803;42.676;26.348;2022-07-04T03:23:09;98848.78;;;18.02;72.10
34566;BME280;20803;42.676;26.348;2022-07-04T03:25:34;98856.59;;;19.27;62.49
34566;BME280;20803;42.676;26.348;2022-07-04T03:28:00;98858.75;;;20.33;55.49
34566;BME280;20803;42.676;26.348;2022-07-04T03:30:26;98848.66;;;21.39;50.66
34566;BME280;20803;42.676;26.348;2022-07-04T03:32:51;98853.19;;;22.43;48.75
34566;BME280;20803;42.676;26.348;2022-07-04T03:35:17;98858.38;;;23.29;46.89
34566;BME280;20803;42.676;26.348;2022-07-04T03:37:42;98865.19;;;24.04;44.93
34566;BME280;20803;42.676;26.348;2022-07-04T03:40:08;98860.13;;;24.71;43.57
34566;BME280;20803;42.676;26.348;2022-07-04T03:42:34;98847.72;;;24.99;42.12
34566;BME280;20803;42.676;26.348;2022-07-04T03:44:59;98855.13;;;25.34;42.04
34566;BME280;20803;42.676;26.348;2022-07-04T03:47:25;98849.06;;;25.63;41.93
34566;BME280;20803;42.676;26.348;2022-07-04T03:49:50;98857.22;;;25.98;40.47
34566;BME280;20803;42.676;26.348;2022-07-04T03:52:16;98856.72;;;26.22;39.36
34566;BME280;20803;42.676;26.348;2022-07-04T03:54:42;98857.81;;;26.47;39.82
34566;BME280;20803;42.676;26.348;2022-07-04T03:57:07;98859.63;;;26.83;38.52
34566;BME280;20803;42.676;26.348;2022-07-04T03:59:32;98853.91;;;27.00;38.17
34566;BME280;20803;42.676;26.348;2022-07-04T04:01:58;98857.19;;;27.37;36.74
34566;BME280;20803;42.676;26.348;2022-07-04T04:04:23;98860.75;;;27.60;36.28
34566;BME280;20803;42.676;26.348;2022-07-04T04:07:08;98857.50;;;27.86;35.82
34566;BME280;20803;42.676;26.348;2022-07-04T04:09:33;98848.19;;;27.80;35.98
34566;BME280;20803;42.676;26.348;2022-07-04T04:11:59;98857.47;;;27.23;36.19
34566;BME280;20803;42.676;26.348;2022-07-04T04:14:24;98847.28;;;27.50;37.10
34566;BME280;20803;42.676;26.348;2022-07-04T04:16:50;98853.66;;;27.78;37.63
34566;BME280;20803;42.676;26.348;2022-07-04T04:19:15;98857.50;;;27.86;38.06
34566;BME280;20803;42.676;26.348;2022-07-04T04:21:41;98857.94;;;28.42;37.50
34566;BME280;20803;42.676;26.348;2022-07-04T04:24:07;98857.94;;;28.42;36.50
34566;BME280;20803;42.676;26.348;2022-07-04T04:26:33;98854.63;;;28.33;36.04
34566;BME280;20803;42.676;26.348;2022-07-04T04:28:58;98860.25;;;27.56;35.81
34566;BME280;20803;42.676;26.348;2022-07-04T04:31:24;98859.34;;;27.83;35.04
34566;BME280;20803;42.676;26.348;2022-07-04T04:33:49;98863.44;;;27.94;34.61
34566;BME280;20803;42.676;26.348;2022-07-04T04:36:15;98869.28;;;28.18;35.14
34566;BME280;20803;42.676;26.348;2022-07-04T04:38:40;98868.09;;;28.38;34.93
34566;BME280;20803;42.676;26.348;2022-07-04T04:41:05;98868.88;;;27.28;36.24
34566;BME280;20803;42.676;26.348;2022-07-04T04:43:31;98876.38;;;27.37;36.11
34566;BME280;20803;42.676;26.348;2022-07-04T04:45:56;98880.31;;;27.23;36.95
34566;BME280;20803;42.676;26.348;2022-07-04T04:48:22;98870.97;;;27.97;35.54
34566;BME280;20803;42.676;26.348;2022-07-04T04:50:47;98876.16;;;27.98;35.01
34566;BME280;20803;42.676;26.348;2022-07-04T04:53:12;98871.78;;;27.86;35.30
34566;BME280;20803;42.676;26.348;2022-07-04T04:55:39;98875.50;;;27.70;36.93
34566;BME280;20803;42.676;26.348;2022-07-04T04:58:04;98872.22;;;28.01;36.73
34566;BME280;20803;42.676;26.348;2022-07-04T05:00:30;98882.06;;;28.11;36.41
34566;BME280;20803;42.676;26.348;2022-07-04T05:02:55;98878.50;;;28.76;35.23
34566;BME280;20803;42.676;26.348;2022-07-04T05:05:21;98881.53;;;29.14;35.08
34566;BME280;20803;42.676;26.348;2022-07-04T05:07:46;98877.47;;;29.52;33.96
34566;BME280;20803;42.676;26.348;2022-07-04T05:10:12;98889.66;;;29.34;33.77
34566;BME280;20803;42.676;26.348;2022-07-04T05:12:38;98867.09;;;29.92;33.20
34566;BME280;20803;42.676;26.348;2022-07-04T05:15:04;98865.44;;;30.15;33.78
34566;BME280;20803;42.676;26.348;2022-07-04T05:17:29;98872.72;;;30.35;33.10
34566;BME280;20803;42.676;26.348;2022-07-04T05:19:55;98872.13;;;30.23;32.53
34566;BME280;20803;42.676;26.348;2022-07-04T05:22:20;98873.38;;;30.09;33.27
34566;BME280;20803;42.676;26.348;2022-07-04T05:24:46;98875.69;;;30.11;33.31
34566;BME280;20803;42.676;26.348;2022-07-04T05:27:11;98876.63;;;30.00;33.73
34566;BME280;20803;42.676;26.348;2022-07-04T05:29:37;98875.75;;;29.87;33.74
34566;BME280;20803;42.676;26.348;2022-07-04T05:32:04;98881.72;;;30.26;33.44
34566;BME280;20803;42.676;26.348;2022-07-04T05:34:29;98874.53;;;30.70;32.80
34566;BME280;20803;42.676;26.348;2022-07-04T05:36:55;98870.75;;;30.62;33.23
34566;BME280;20803;42.676;26.348;2022-07-04T05:39:20;98877.00;;;30.10;33.49
34566;BME280;20803;42.676;26.348;2022-07-04T05:41:46;98880.28;;;29.76;34.35
34566;BME280;20803;42.676;26.348;2022-07-04T05:44:11;98874.66;;;30.27;34.63
34566;BME280;20803;42.676;26.348;2022-07-04T05:46:37;98874.47;;;30.57;33.39
34566;BME280;20803;42.676;26.348;2022-07-04T05:49:02;98871.34;;;31.45;32.31
34566;BME280;20803;42.676;26.348;2022-07-04T05:51:28;98872.13;;;31.72;31.70
34566;BME280;20803;42.676;26.348;2022-07-04T05:53:53;98875.81;;;32.06;31.38
34566;BME280;20803;42.676;26.348;2022-07-04T05:56:19;98871.03;;;32.09;30.29
34566;BME280;20803;42.676;26.348;2022-07-04T05:58:44;98869.72;;;32.10;30.10
34566;BME280;20803;42.676;26.348;2022-07-04T06:01:10;98867.38;;;31.74;30.49
34566;BME280;20803;42.676;26.348;2022-07-04T06:03:35;98873.69;;;31.60;30.90
34566;BME280;20803;42.676;26.348;2022-07-04T06:06:04;98865.69;;;31.79;30.87
34566;BME280;20803;42.676;26.348;2022-07-04T06:08:30;98863.94;;;31.23;31.10
34566;BME280;20803;42.676;26.348;2022-07-04T06:10:56;98866.16;;;31.43;31.13
34566;BME280;20803;42.676;26.348;2022-07-04T06:13:22;98862.28;;;31.28;30.77
34566;BME280;20803;42.676;26.348;2022-07-04T06:15:48;98855.13;;;31.61;30.28
34566;BME280;20803;42.676;26.348;2022-07-04T06:18:13;98864.06;;;32.31;28.51
34566;BME280;20803;42.676;26.348;2022-07-04T06:20:40;98862.28;;;31.80;29.08
34566;BME280;20803;42.676;26.348;2022-07-04T06:23:06;98858.31;;;31.31;29.64
34566;BME280;20803;42.676;26.348;2022-07-04T06:25:32;98860.66;;;32.19;29.18
34566;BME280;20803;42.676;26.348;2022-07-04T06:27:58;98860.22;;;32.90;27.97
34566;BME280;20803;42.676;26.348;2022-07-04T06:30:23;98865.50;;;32.99;27.92
34566;BME280;20803;42.676;26.348;2022-07-04T06:32:57;98856.34;;;32.26;27.03
34566;BME280;20803;42.676;26.348;2022-07-04T06:35:26;98855.44;;;31.57;28.51
34566;BME280;20803;42.676;26.348;2022-07-04T06:38:11;98848.81;;;32.09;29.02
34566;BME280;20803;42.676;26.348;2022-07-04T06:40:37;98853.91;;;32.03;29.22
34566;BME280;20803;42.676;26.348;2022-07-04T06:43:03;98850.03;;;31.40;29.25
34566;BME280;20803;42.676;26.348;2022-07-04T06:45:29;98843.22;;;30.98;29.43
34566;BME280;20803;42.676;26.348;2022-07-04T06:47:55;98851.91;;;31.77;28.99
34566;BME280;20803;42.676;26.348;2022-07-04T06:50:21;98852.84;;;31.93;28.00
34566;BME280;20803;42.676;26.348;2022-07-04T06:52:47;98855.88;;;31.74;27.90
34566;BME280;20803;42.676;26.348;2022-07-04T06:55:13;98854.59;;;30.91;28.23
34566;BME280;20803;42.676;26.348;2022-07-04T06:57:38;98843.63;;;31.61;28.74
34566;BME280;20803;42.676;26.348;2022-07-04T07:00:06;98854.19;;;31.92;27.91
34566;BME280;20803;42.676;26.348;2022-07-04T07:02:34;98848.03;;;32.22;28.48
34566;BME280;20803;42.676;26.348;2022-07-04T07:05:00;98856.19;;;31.84;27.94
34566;BME280;20803;42.676;26.348;2022-07-04T07:07:25;98863.19;;;31.75;27.91
34566;BME280;20803;42.676;26.348;2022-07-04T07:09:52;98870.09;;;31.93;26.74
34566;BME280;20803;42.676;26.348;2022-07-04T07:12:18;98863.88;;;32.02;27.03
34566;BME280;20803;42.676;26.348;2022-07-04T07:14:43;98859.94;;;31.79;26.86
34566;BME280;20803;42.676;26.348;2022-07-04T07:17:09;98863.81;;;31.42;27.18
34566;BME280;20803;42.676;26.348;2022-07-04T07:19:34;98858.28;;;31.04;27.87
34566;BME280;20803;42.676;26.348;2022-07-04T07:22:00;98860.63;;;31.19;29.10
34566;BME280;20803;42.676;26.348;2022-07-04T07:24:25;98857.22;;;31.34;29.46
34566;BME280;20803;42.676;26.348;2022-07-04T07:26:51;98852.56;;;31.31;28.33
34566;BME280;20803;42.676;26.348;2022-07-04T07:29:17;98848.91;;;31.30;29.53
34566;BME280;20803;42.676;26.348;2022-07-04T07:31:43;98840.06;;;31.41;28.68
34566;BME280;20803;42.676;26.348;2022-07-04T07:34:08;98837.22;;;31.15;27.97
34566;BME280;20803;42.676;26.348;2022-07-04T07:36:34;98846.78;;;30.91;28.25
34566;BME280;20803;42.676;26.348;2022-07-04T07:38:59;98844.22;;;30.88;28.58
34566;BME280;20803;42.676;26.348;2022-07-04T07:41:25;98846.94;;;30.67;29.11
34566;BME280;20803;42.676;26.348;2022-07-04T07:43:51;98839.88;;;31.26;28.31
34566;BME280;20803;42.676;26.348;2022-07-04T07:46:16;98840.63;;;31.14;28.82
34566;BME280;20803;42.676;26.348;2022-07-04T07:48:42;98841.50;;;31.74;27.20
34566;BME280;20803;42.676;26.348;2022-07-04T07:51:09;98837.66;;;31.32;28.40
34566;BME280;20803;42.676;26.348;2022-07-04T07:53:35;98849.97;;;31.93;28.00
34566;BME280;20803;42.676;26.348;2022-07-04T07:56:00;98837.31;;;31.75;27.47
34566;BME280;20803;42.676;26.348;2022-07-04T07:58:26;98829.22;;;31.48;27.98
34566;BME280;20803;42.676;26.348;2022-07-04T08:00:52;98833.94;;;31.84;27.51
34566;BME280;20803;42.676;26.348;2022-07-04T08:03:17;98831.38;;;32.07;27.51
34566;BME280;20803;42.676;26.348;2022-07-04T08:06:02;98841.16;;;31.78;28.13
34566;BME280;20803;42.676;26.348;2022-07-04T08:08:27;98832.88;;;31.74;27.51
34566;BME280;20803;42.676;26.348;2022-07-04T08:10:53;98839.75;;;31.58;28.27
34566;BME280;20803;42.676;26.348;2022-07-04T08:13:18;98835.56;;;31.59;28.34
34566;BME280;20803;42.676;26.348;2022-07-04T08:15:44;98836.53;;;31.75;27.83
34566;BME280;20803;42.676;26.348;2022-07-04T08:18:09;98837.31;;;32.09;27.49
34566;BME280;20803;42.676;26.348;2022-07-04T08:20:35;98836.97;;;31.66;27.62
34566;BME280;20803;42.676;26.348;2022-07-04T08:23:00;98832.34;;;31.63;28.01
34566;BME280;20803;42.676;26.348;2022-07-04T08:25:26;98835.09;;;31.68;28.31
34566;BME280;20803;42.676;26.348;2022-07-04T08:27:51;98831.44;;;31.41;29.00
34566;BME280;20803;42.676;26.348;2022-07-04T08:30:17;98830.34;;;31.44;28.89
34566;BME280;20803;42.676;26.348;2022-07-04T08:32:42;98836.31;;;31.47;28.39
34566;BME280;20803;42.676;26.348;2022-07-04T08:35:08;98833.78;;;31.30;29.32
34566;BME280;20803;42.676;26.348;2022-07-04T08:37:34;98841.97;;;31.65;29.29
34566;BME280;20803;42.676;26.348;2022-07-04T08:40:00;98835.97;;;31.76;29.77
34566;BME280;20803;42.676;26.348;2022-07-04T08:42:29;98827.72;;;32.07;28.66
34566;BME280;20803;42.676;26.348;2022-07-04T08:45:00;98839.75;;;31.71;29.19
34566;BME280;20803;42.676;26.348;2022-07-04T08:47:28;98841.53;;;31.61;29.49
34566;BME280;20803;42.676;26.348;2022-07-04T08:50:07;98836.31;;;31.73;30.25
34566;BME280;20803;42.676;26.348;2022-07-04T08:52:40;98836.06;;;31.84;29.11
34566;BME280;20803;42.676;26.348;2022-07-04T08:55:08;98830.34;;;31.71;29.89
34566;BME280;20803;42.676;26.348;2022-07-04T08:57:52;98830.69;;;32.14;30.11
34566;BME280;20803;42.676;26.348;2022-07-04T09:00:39;98832.41;;;32.51;29.18
34566;BME280;20803;42.676;26.348;2022-07-04T09:03:05;98824.00;;;32.53;30.22
34566;BME280;20803;42.676;26.348;2022-07-04T09:05:31;98823.09;;;32.38;28.70
34566;BME280;20803;42.676;26.348;2022-07-04T09:07:58;98816.75;;;32.60;28.59
34566;BME280;20803;42.676;26.348;2022-07-04T09:10:24;98814.16;;;32.49;28.45
34566;BME280;20803;42.676;26.348;2022-07-04T09:12:49;98825.38;;;32.60;28.41
34566;BME280;20803;42.676;26.348;2022-07-04T09:15:16;98820.25;;;32.45;28.89
34566;BME280;20803;42.676;26.348;2022-07-04T09:17:42;98826.09;;;32.53;28.40
34566;BME280;20803;42.676;26.348;2022-07-04T09:20:20;98818.88;;;32.80;27.66
34566;BME280;20803;42.676;26.348;2022-07-04T09:22:48;98830.41;;;32.80;26.61
34566;BME280;20803;42.676;26.348;2022-07-04T09:25:14;98810.66;;;32.43;27.41
34566;BME280;20803;42.676;26.348;2022-07-04T09:27:46;98818.09;;;32.80;26.67
34566;BME280;20803;42.676;26.348;2022-07-04T09:30:17;98816.97;;;32.41;26.53
34566;BME280;20803;42.676;26.348;2022-07-04T09:32:48;98820.72;;;32.15;24.92
34566;BME280;20803;42.676;26.348;2022-07-04T09:35:17;98818.66;;;32.37;25.04
34566;BME280;20803;42.676;26.348;2022-07-04T09:37:46;98820.84;;;32.44;24.34
34566;BME280;20803;42.676;26.348;2022-07-04T09:40:32;98815.78;;;32.37;24.76
34566;BME280;20803;42.676;26.348;2022-07-04T09:42:59;98822.94;;;32.64;23.96
34566;BME280;20803;42.676;26.348;2022-07-04T09:45:25;98829.16;;;32.68;23.69
34566;BME280;20803;42.676;26.348;2022-07-04T09:47:56;98824.91;;;32.48;23.55
34566;BME280;20803;42.676;26.348;2022-07-04T09:50:22;98815.69;;;32.29;24.29
34566;BME280;20803;42.676;26.348;2022-07-04T09:55:40;98816.41;;;32.63;23.92
34566;BME280;20803;42.676;26.348;2022-07-04T09:58:08;98812.41;;;32.46;24.42
34566;BME280;20803;42.676;26.348;2022-07-04T10:00:42;98817.31;;;32.04;24.66
34566;BME280;20803;42.676;26.348;2022-07-04T10:03:19;98814.16;;;31.94;25.20
34566;BME280;20803;42.676;26.348;2022-07-04T10:05:47;98803.56;;;31.89;25.32
34566;BME280;20803;42.676;26.348;2022-07-04T10:08:13;98804.00;;;31.80;24.73
34566;BME280;20803;42.676;26.348;2022-07-04T10:10:39;98804.69;;;31.73;26.01
34566;BME280;20803;42.676;26.348;2022-07-04T10:15:32;98779.78;;;31.28;25.84
34566;BME280;20803;42.676;26.348;2022-07-04T10:17:58;98788.72;;;31.12;25.53
34566;BME280;20803;42.676;26.348;2022-07-04T10:20:25;98792.56;;;31.01;25.22
34566;BME280;20803;42.676;26.348;2022-07-04T10:22:50;98790.13;;;30.79;25.93
34566;BME280;20803;42.676;26.348;2022-07-04T10:25:16;98783.72;;;30.99;25.95
34566;BME280;20803;42.676;26.348;2022-07-04T10:27:42;98767.81;;;30.85;26.28
34566;BME280;20803;42.676;26.348;2022-07-04T10:30:11;98780.94;;;30.93;25.82
34566;BME280;20803;42.676;26.348;2022-07-04T10:32:38;98772.22;;;30.99;26.12
34566;BME280;20803;42.676;26.348;2022-07-04T10:35:04;98773.38;;;31.22;26.07
34566;BME280;20803;42.676;26.348;2022-07-04T10:37:58;98775.34;;;31.40;26.16
34566;BME280;20803;42.676;26.348;2022-07-04T10:40:50;98785.25;;;31.66;25.67
34566;BME280;20803;42.676;26.348;2022-07-04T10:51:49;98766.03;;;31.48;26.15
34566;BME280;20803;42.676;26.348;2022-07-04T10:54:19;98763.53;;;31.18;26.87
34566;BME280;20803;42.676;26.348;2022-07-04T10:56:55;98763.09;;;31.27;27.06
34566;BME280;20803;42.676;26.348;2022-07-04T10:59:26;98754.78;;;31.23;26.74
34566;BME280;20803;42.676;26.348;2022-07-04T11:05:04;98753.13;;;31.88;25.57
34566;BME280;20803;42.676;26.348;2022-07-04T11:18:11;98731.72;;;31.97;28.24
34566;BME280;20803;42.676;26.348;2022-07-04T11:20:42;98736.03;;;32.03;27.40
34566;BME280;20803;42.676;26.348;2022-07-04T11:23:09;98728.16;;;31.83;26.70
34566;BME280;20803;42.676;26.348;2022-07-04T11:25:36;98725.13;;;32.22;24.65
34566;BME280;20803;42.676;26.348;2022-07-04T11:28:28;98736.59;;;32.02;24.24
34566;BME280;20803;42.676;26.348;2022-07-04T11:30:57;98714.09;;;31.59;24.38
34566;BME280;20803;42.676;26.348;2022-07-04T11:33:25;98707.72;;;31.39;25.50
34566;BME280;20803;42.676;26.348;2022-07-04T11:36:05;98713.00;;;31.35;25.70
34566;BME280;20803;42.676;26.348;2022-07-04T11:41:19;98709.88;;;31.60;25.01
34566;BME280;20803;42.676;26.348;2022-07-04T11:44:05;98694.66;;;31.52;25.53
34566;BME280;20803;42.676;26.348;2022-07-04T11:46:50;98701.44;;;31.75;25.83
34566;BME280;20803;42.676;26.348;2022-07-04T11:49:24;98706.00;;;31.70;24.75
34566;BME280;20803;42.676;26.348;2022-07-04T11:51:49;98709.88;;;31.60;25.52
34566;BME280;20803;42.676;26.348;2022-07-04T11:54:15;98699.75;;;31.59;25.13
34566;BME280;20803;42.676;26.348;2022-07-04T11:56:40;98708.41;;;31.32;26.00
34566;BME280;20803;42.676;26.348;2022-07-04T11:59:16;98714.56;;;31.36;25.14
34566;BME280;20803;42.676;26.348;2022-07-04T12:01:44;98714.16;;;31.66;26.07
34566;BME280;20803;42.676;26.348;2022-07-04T12:06:42;98691.50;;;31.76;26.06
34566;BME280;20803;42.676;26.348;2022-07-04T12:09:08;98700.75;;;31.82;25.72
34566;BME280;20803;42.676;26.348;2022-07-04T12:11:50;98693.22;;;31.79;25.74
34566;BME280;20803;42.676;26.348;2022-07-04T12:14:16;98694.00;;;31.59;24.94
34566;BME280;20803;42.676;26.348;2022-07-04T12:16:41;98685.38;;;31.59;25.29
34566;BME280;20803;42.676;26.348;2022-07-04T12:19:10;98689.59;;;31.78;25.66
34566;BME280;20803;42.676;26.348;2022-07-04T12:21:36;98692.22;;;31.90;24.59
34566;BME280;20803;42.676;26.348;2022-07-04T12:24:02;98693.88;;;31.85;24.85
34566;BME280;20803;42.676;26.348;2022-07-04T12:26:33;98687.34;;;31.64;25.09
34566;BME280;20803;42.676;26.348;2022-07-04T12:29:00;98686.56;;;31.63;25.77
34566;BME280;20803;42.676;26.348;2022-07-04T12:31:52;98691.97;;;31.54;26.12
34566;BME280;20803;42.676;26.348;2022-07-04T12:34:19;98680.81;;;31.63;26.17
34566;BME280;20803;42.676;26.348;2022-07-04T12:36:52;98685.75;;;31.76;25.95
34566;BME280;20803;42.676;26.348;2022-07-04T12:39:31;98683.69;;;31.63;25.46
34566;BME280;20803;42.676;26.348;2022-07-04T12:42:08;98683.56;;;31.69;25.87
34566;BME280;20803;42.676;26.348;2022-07-04T12:44:36;98690.56;;;31.81;24.68
34566;BME280;20803;42.676;26.348;2022-07-04T12:47:03;98686.97;;;31.67;25.61
34566;BME280;20803;42.676;26.348;2022-07-04T12:49:28;98683.78;;;31.71;24.39
34566;BME280;20803;42.676;26.348;2022-07-04T12:52:08;98686.44;;;31.69;24.36
34566;BME280;20803;42.676;26.348;2022-07-04T12:54:34;98699.88;;;31.74;25.45
34566;BME280;20803;42.676;26.348;2022-07-04T12:57:17;98695.06;;;31.56;25.48
34566;BME280;20803;42.676;26.348;2022-07-04T12:59:44;98693.56;;;31.41;25.97
34566;BME280;20803;42.676;26.348;2022-07-04T13:02:10;98694.56;;;31.44;26.77
34566;BME280;20803;42.676;26.348;2022-07-04T13:04:37;98684.25;;;31.49;25.74
34566;BME280;20803;42.676;26.348;2022-07-04T13:07:17;98688.25;;;31.46;25.89
34566;BME280;20803;42.676;26.348;2022-07-04T13:09:44;98695.09;;;31.42;26.75
34566;BME280;20803;42.676;26.348;2022-07-04T13:12:10;98683.56;;;31.56;26.00
34566;BME280;20803;42.676;26.348;2022-07-04T13:14:57;98690.34;;;31.79;26.44
34566;BME280;20803;42.676;26.348;2022-07-04T13:17:24;98689.25;;;31.82;25.44
34566;BME280;20803;42.676;26.348;2022-07-04T13:19:51;98683.13;;;31.65;25.57
34566;BME280;20803;42.676;26.348;2022-07-04T13:22:21;98676.75;;;31.46;26.45
34566;BME280;20803;42.676;26.348;2022-07-04T13:24:47;98677.16;;;31.63;26.02